Time;durP1;ratioP1;P1;durP2;ratioP2;P2;SDS_P1;SDS_P2;PMS_P1;PMS_P2;Temp;Humidity;BMP_temperature;BMP_pressure;BME280_temperature;BME280_humidity;BME280_pressure;Samples;Min_cycle;Max_cycle;Signal;HPM_P1;HPM_P2
2023/11/03 00:00:50;;;;;;;8.77;1.40;;;;;;;11.76;57.09;94675.75;5067864;28;20456;-71
2023/11/03 00:03:15;;;;;;;3.03;1.53;;;;;;;11.76;57.10;94664.47;5072813;28;20206;-71
2023/11/03 00:05:41;;;;;;;3.00;1.50;;;;;;;11.79;56.86;94664.81;5053549;28;20174;-70
2023/11/03 00:08:08;;;;;;;2.10;1.47;;;;;;;11.73;57.22;94660.44;5072640;28;20175;-70
2023/11/03 00:10:37;;;;;;;3.53;2.77;;;;;;;11.74;57.01;94661.25;5068111;28;20179;-71
2023/11/03 00:13:03;;;;;;;3.30;2.30;;;;;;;11.70;56.86;94658.28;5070786;28;20834;-71
2023/11/03 00:15:29;;;;;;;2.00;1.10;;;;;;;11.72;56.44;94660.69;5070675;28;20873;-70
2023/11/03 00:17:55;;;;;;;5.00;1.50;;;;;;;11.68;56.68;94662.94;5080315;28;20420;-70
2023/11/03 00:20:20;;;;;;;3.07;1.23;;;;;;;11.64;56.54;94667.03;5071594;28;20455;-70
2023/11/03 00:22:46;;;;;;;3.23;1.77;;;;;;;11.59;57.04;94669.53;5070900;28;20448;-70
2023/11/03 00:25:14;;;;;;;5.23;1.70;;;;;;;11.59;56.79;94687.88;5079451;28;20187;-69
2023/11/03 00:27:40;;;;;;;4.27;2.23;;;;;;;11.55;56.42;94684.88;5067762;28;20175;-70
2023/11/03 00:30:07;;;;;;;3.57;2.13;;;;;;;11.56;56.49;94685.69;5078654;28;20657;-69
2023/11/03 00:32:33;;;;;;;2.87;1.70;;;;;;;11.56;56.63;94680.44;5078545;28;20945;-73
2023/11/03 00:34:59;;;;;;;4.07;2.33;;;;;;;11.56;56.45;94678.63;5070351;28;20976;-74
2023/11/03 00:37:25;;;;;;;5.93;2.53;;;;;;;11.56;56.14;94675.22;5078465;28;20421;-70
2023/11/03 00:39:50;;;;;;;4.53;1.60;;;;;;;11.56;56.24;94662.09;5072249;28;20566;-70
2023/11/03 00:42:16;;;;;;;7.27;2.53;;;;;;;11.46;56.37;94660.81;5073448;28;20209;-73
2023/11/03 00:44:41;;;;;;;7.00;2.30;;;;;;;11.47;56.56;94665.00;5069833;28;20174;-71
2023/11/03 00:47:08;;;;;;;4.10;1.53;;;;;;;11.41;56.10;94659.81;5073152;28;20257;-70
2023/11/03 00:49:37;;;;;;;4.20;1.20;;;;;;;11.29;56.33;94670.25;5070011;28;20171;-72
2023/11/03 00:52:04;;;;;;;2.73;1.20;;;;;;;11.16;56.99;94669.38;5063384;28;20436;-70
2023/11/03 00:54:30;;;;;;;5.60;1.57;;;;;;;11.16;57.16;94665.94;5064759;28;20504;-74
2023/11/03 00:56:55;;;;;;;5.87;1.40;;;;;;;11.24;57.08;94667.47;5078911;28;22366;-71
2023/11/03 00:59:21;;;;;;;7.03;2.40;;;;;;;11.25;56.98;94662.03;5053743;28;20178;-72
2023/11/03 01:01:47;;;;;;;6.73;2.70;;;;;;;11.22;56.99;94672.97;5072399;28;20693;-72
2023/11/03 01:04:12;;;;;;;8.30;3.63;;;;;;;11.21;56.76;94680.00;5076817;28;20537;-72
2023/11/03 01:06:39;;;;;;;7.60;2.80;;;;;;;11.27;56.99;94688.03;5079694;28;20790;-70
2023/11/03 01:09:04;;;;;;;4.47;2.00;;;;;;;11.24;57.05;94683.22;5071063;28;20183;-72
2023/11/03 01:11:30;;;;;;;6.57;2.20;;;;;;;11.09;57.31;94681.75;5071915;28;20816;-70
2023/11/03 01:13:56;;;;;;;5.43;1.50;;;;;;;11.11;57.26;94689.41;5067955;28;20612;-71
2023/11/03 01:16:25;;;;;;;3.43;1.60;;;;;;;11.17;57.01;94686.72;5075688;28;20292;-70
2023/11/03 01:18:51;;;;;;;5.80;1.67;;;;;;;11.16;56.78;94692.16;5066898;28;20421;-70
2023/11/03 01:21:18;;;;;;;5.97;2.13;;;;;;;11.18;56.71;94688.31;5074699;28;20424;-70
2023/11/03 01:23:47;;;;;;;6.40;1.37;;;;;;;11.14;56.74;94689.75;5052796;28;20493;-72
2023/11/03 01:26:13;;;;;;;10.00;1.67;;;;;;;11.16;56.38;94697.41;5057996;28;20847;-70
2023/11/03 01:28:39;;;;;;;2.90;1.80;;;;;;;11.08;56.13;94693.28;5070423;28;20500;-71
2023/11/03 01:31:05;;;;;;;4.77;1.73;;;;;;;11.13;56.27;94703.88;5068303;28;20487;-71
2023/11/03 01:33:37;;;;;;;6.30;1.70;;;;;;;11.16;55.94;94703.47;5075804;28;20186;-70
2023/11/03 01:36:04;;;;;;;2.47;1.10;;;;;;;11.12;56.23;94702.28;5051838;28;20521;-70
2023/11/03 01:38:31;;;;;;;3.80;1.30;;;;;;;11.16;56.16;94700.84;5070260;28;20417;-71
2023/11/03 01:40:57;;;;;;;7.37;1.93;;;;;;;11.16;55.98;94700.03;5073281;28;20428;-71
2023/11/03 01:43:22;;;;;;;5.70;1.70;;;;;;;11.20;56.16;94699.41;5071051;28;21061;-71
2023/11/03 01:45:48;;;;;;;9.03;1.50;;;;;;;11.18;56.05;94704.06;5069681;28;20534;-69
2023/11/03 01:48:14;;;;;;;11.20;1.37;;;;;;;11.21;56.08;94711.47;5069580;28;20666;-69
2023/11/03 01:50:40;;;;;;;3.80;1.17;;;;;;;11.24;55.80;94712.03;5078345;28;20261;-70
2023/11/03 01:53:06;;;;;;;6.37;1.70;;;;;;;11.23;55.52;94711.25;5072254;28;20440;-69
2023/11/03 01:55:32;;;;;;;8.60;1.40;;;;;;;11.25;55.64;94714.47;5060623;28;20447;-70
2023/11/03 01:57:58;;;;;;;6.03;1.13;;;;;;;11.27;55.58;94714.25;5072664;28;20178;-73
2023/11/03 02:00:24;;;;;;;7.13;1.17;;;;;;;11.29;55.30;94712.22;5074857;28;20202;-71
2023/11/03 02:02:50;;;;;;;6.03;1.73;;;;;;;11.23;55.19;94713.88;5055522;28;20481;-71
2023/11/03 02:05:16;;;;;;;4.37;1.20;;;;;;;11.19;55.10;94703.03;5051207;28;20264;-71
2023/11/03 02:07:41;;;;;;;5.90;1.73;;;;;;;11.20;55.31;94704.63;5068537;28;20516;-70
2023/11/03 02:10:07;;;;;;;3.10;1.20;;;;;;;11.20;55.43;94696.78;5071048;28;20213;-70
2023/11/03 02:12:33;;;;;;;5.67;1.20;;;;;;;11.18;55.35;94696.19;5072552;28;20635;-70
2023/11/03 02:14:59;;;;;;;3.00;1.47;;;;;;;11.20;55.32;94693.34;5070245;28;20189;-69
2023/11/03 02:17:24;;;;;;;5.10;1.30;;;;;;;11.18;55.34;94704.06;5074243;28;20825;-69
2023/11/03 02:19:50;;;;;;;3.67;1.10;;;;;;;11.22;54.91;94697.34;5067889;28;20182;-73
2023/11/03 02:22:16;;;;;;;14.97;1.50;;;;;;;11.22;54.99;94702.59;5068417;28;20764;-71
2023/11/03 02:24:41;;;;;;;6.40;1.20;;;;;;;11.22;55.39;94697.34;5052984;28;20512;-72
2023/11/03 02:27:07;;;;;;;4.27;1.03;;;;;;;11.24;55.57;94705.00;5069137;28;20331;-72
2023/11/03 02:29:32;;;;;;;8.10;1.30;;;;;;;11.21;55.29;94708.06;5068211;28;20194;-69
2023/11/03 02:31:58;;;;;;;2.73;1.43;;;;;;;11.20;55.15;94712.50;5068960;28;20190;-70
2023/11/03 02:34:23;;;;;;;1.97;1.00;;;;;;;11.16;55.34;94700.84;5074644;28;20725;-70
2023/11/03 02:36:48;;;;;;;2.37;1.10;;;;;;;11.19;55.56;94694.34;5067816;28;20742;-71
2023/11/03 02:39:14;;;;;;;3.03;1.70;;;;;;;11.20;55.61;94696.78;5067236;28;20221;-69
2023/11/03 02:41:40;;;;;;;2.60;1.13;;;;;;;11.18;55.55;94706.66;5078777;28;20197;-72
2023/11/03 02:44:05;;;;;;;3.00;1.50;;;;;;;11.20;55.43;94699.41;5069075;28;20600;-71
2023/11/03 02:46:31;;;;;;;3.30;1.17;;;;;;;11.20;55.32;94693.34;5073835;28;20166;-70
2023/11/03 02:48:57;;;;;;;6.23;1.50;;;;;;;11.21;55.64;94700.19;5067909;28;20182;-70
2023/11/03 02:51:22;;;;;;;5.93;1.97;;;;;;;11.17;55.59;94694.59;5072853;28;20515;-71
2023/11/03 02:53:48;;;;;;;3.87;1.23;;;;;;;11.15;55.35;94696.63;5070711;28;20269;-70
2023/11/03 02:56:27;;;;;;;5.17;1.17;;;;;;;11.15;55.75;94699.22;5074864;28;20265;-71
2023/11/03 02:58:52;;;;;;;4.93;1.03;;;;;;;11.16;55.68;94692.97;5078172;28;20188;-70
2023/11/03 03:01:28;;;;;;;6.83;1.40;;;;;;;11.13;55.58;94696.03;5060899;28;20794;-70
2023/11/03 03:03:53;;;;;;;1.70;1.20;;;;;;;11.05;55.68;94694.47;5079130;28;20177;-70
2023/11/03 03:06:18;;;;;;;4.20;1.40;;;;;;;10.96;55.83;94695.00;5070989;28;20932;-72
2023/11/03 03:08:44;;;;;;;5.80;1.27;;;;;;;10.87;56.21;94699.72;5069248;28;20214;-70
2023/11/03 03:11:10;;;;;;;5.13;1.10;;;;;;;10.75;56.39;94703.03;5067363;28;20224;-69
2023/11/03 03:13:35;;;;;;;6.50;1.67;;;;;;;10.73;56.80;94704.25;5067416;28;20456;-69
2023/11/03 03:16:01;;;;;;;3.10;1.10;;;;;;;10.65;56.69;94705.31;5076152;28;20237;-70
2023/11/03 03:18:27;;;;;;;2.63;1.30;;;;;;;10.57;57.02;94706.41;5069163;28;20189;-71
2023/11/03 03:20:52;;;;;;;12.20;1.60;;;;;;;10.55;57.00;94702.38;5069598;28;20658;-70
2023/11/03 03:23:18;;;;;;;7.03;1.67;;;;;;;10.56;57.34;94706.59;5075292;28;20277;-68
2023/11/03 03:25:43;;;;;;;8.10;1.37;;;;;;;10.55;57.42;94705.00;5076837;28;20257;-73
2023/11/03 03:28:08;;;;;;;5.30;1.77;;;;;;;10.54;57.73;94693.72;5077458;28;20209;-69
2023/11/03 03:30:34;;;;;;;3.97;1.67;;;;;;;10.57;57.83;94687.25;5071208;28;20186;-71
2023/11/03 03:32:59;;;;;;;4.97;1.20;;;;;;;10.60;57.78;94692.06;5071029;28;20257;-70
2023/11/03 03:35:25;;;;;;;4.90;1.20;;;;;;;10.67;57.37;94694.63;5072142;28;20345;-68
2023/11/03 03:37:50;;;;;;;8.63;1.77;;;;;;;10.59;57.42;94686.00;5071420;28;20298;-69
2023/11/03 03:40:16;;;;;;;5.57;1.80;;;;;;;10.58;57.35;94687.06;5075027;28;20274;-70
2023/11/03 03:42:42;;;;;;;4.83;1.50;;;;;;;10.50;57.18;94700.41;5053521;28;20209;-69
2023/11/03 03:45:09;;;;;;;3.13;1.20;;;;;;;10.47;57.26;94700.81;5076407;28;20189;-69
2023/11/03 03:47:35;;;;;;;5.90;1.23;;;;;;;10.44;57.51;94698.63;5071036;28;20473;-68
2023/11/03 03:50:00;;;;;;;5.10;1.43;;;;;;;10.46;57.47;94696.59;5077250;28;20424;-70
2023/11/03 03:52:25;;;;;;;5.10;1.50;;;;;;;10.44;57.54;94698.63;5070710;28;20663;-70
2023/11/03 03:54:51;;;;;;;2.03;1.57;;;;;;;10.48;57.62;94696.38;5075812;28;20264;-70
2023/11/03 03:57:16;;;;;;;2.90;1.30;;;;;;;10.52;57.57;94700.19;5083753;28;20589;-70
2023/11/03 03:59:42;;;;;;;3.00;1.23;;;;;;;10.52;57.93;94695.75;5069479;28;20198;-70
2023/11/03 04:02:07;;;;;;;8.40;1.50;;;;;;;10.52;57.98;94700.19;5083532;28;20209;-71
2023/11/03 04:04:33;;;;;;;1.63;1.00;;;;;;;10.46;57.57;94709.69;5080613;28;20180;-70
2023/11/03 04:06:58;;;;;;;2.90;1.50;;;;;;;10.38;57.68;94736.13;5070579;28;20772;-69
2023/11/03 04:09:25;;;;;;;3.97;1.40;;;;;;;10.22;57.88;94748.66;5071996;28;20675;-69
2023/11/03 04:11:50;;;;;;;3.83;1.40;;;;;;;10.23;58.45;94755.50;5070346;28;20332;-69
2023/11/03 04:14:16;;;;;;;7.10;1.50;;;;;;;10.33;58.45;94746.41;5078810;28;20507;-70
2023/11/03 04:16:41;;;;;;;3.97;1.47;;;;;;;10.41;58.29;94743.56;5052716;28;20210;-70
2023/11/03 04:19:07;;;;;;;3.73;1.97;;;;;;;10.47;58.18;94729.63;5084514;28;20170;-71
2023/11/03 04:21:32;;;;;;;2.67;1.53;;;;;;;10.46;58.45;94714.91;5070497;28;20606;-70
2023/11/03 04:23:57;;;;;;;6.30;1.87;;;;;;;10.42;58.50;94716.38;5076212;28;20179;-70
2023/11/03 04:26:24;;;;;;;5.60;1.40;;;;;;;10.32;58.99;94713.41;5070940;28;20220;-71
2023/11/03 04:28:49;;;;;;;2.33;1.90;;;;;;;10.32;59.13;94716.00;5076517;28;20206;-70
2023/11/03 04:31:15;;;;;;;6.13;2.93;;;;;;;10.31;59.37;94709.97;5073430;28;20508;-71
2023/11/03 04:33:40;;;;;;;8.37;4.60;;;;;;;10.40;59.21;94708.72;5053423;28;20175;-71
2023/11/03 04:36:06;;;;;;;3.23;1.70;;;;;;;10.44;59.19;94707.28;5077761;28;20734;-70
2023/11/03 04:38:32;;;;;;;3.93;1.70;;;;;;;10.49;59.15;94701.41;5079119;28;20209;-70
2023/11/03 04:40:57;;;;;;;4.90;1.80;;;;;;;10.52;59.26;94702.81;5069896;28;20436;-71
2023/11/03 04:43:23;;;;;;;3.90;1.50;;;;;;;10.54;59.09;94712.06;5069277;28;20189;-72
2023/11/03 04:45:48;;;;;;;5.90;1.73;;;;;;;10.62;59.13;94715.41;5069996;28;20210;-70
2023/11/03 04:48:14;;;;;;;2.53;1.43;;;;;;;10.63;58.93;94709.97;5075204;28;20560;-71
2023/11/03 04:50:39;;;;;;;4.07;1.70;;;;;;;10.68;59.09;94714.56;5073648;28;20261;-73
2023/11/03 04:53:05;;;;;;;3.20;1.50;;;;;;;10.72;58.94;94723.59;5067223;28;20813;-71
2023/11/03 04:55:30;;;;;;;4.00;1.63;;;;;;;10.72;58.95;94726.22;5077722;28;20595;-70
2023/11/03 04:57:56;;;;;;;4.00;1.93;;;;;;;10.72;59.14;94721.78;5061900;28;20186;-70
2023/11/03 05:00:22;;;;;;;4.70;2.03;;;;;;;10.72;59.09;94718.34;5067093;28;20201;-70
2023/11/03 05:02:49;;;;;;;6.03;2.40;;;;;;;10.68;59.24;94717.19;5075347;28;20440;-72
2023/11/03 05:05:15;;;;;;;4.67;2.30;;;;;;;10.70;59.40;94715.97;5069118;28;20188;-73
2023/11/03 05:07:40;;;;;;;2.80;1.70;;;;;;;10.73;59.26;94725.19;5070336;28;20787;-70
2023/11/03 05:10:06;;;;;;;3.60;1.20;;;;;;;10.73;59.20;94726.00;5068507;28;20217;-70
2023/11/03 05:12:32;;;;;;;2.30;1.50;;;;;;;10.73;59.01;94728.63;5050267;28;20851;-70
2023/11/03 05:14:58;;;;;;;2.73;1.43;;;;;;;10.80;59.10;94723.34;5069114;28;20428;-69
2023/11/03 05:17:23;;;;;;;5.03;1.20;;;;;;;10.86;58.57;94729.53;5068196;28;20198;-69
2023/11/03 05:19:50;;;;;;;3.73;1.40;;;;;;;10.86;58.58;94727.72;5079166;28;20178;-71
2023/11/03 05:22:16;;;;;;;6.30;2.03;;;;;;;10.86;58.69;94725.09;5060382;28;20297;-70
2023/11/03 05:24:46;;;;;;;2.03;1.30;;;;;;;10.95;58.44;94727.47;5077653;28;20503;-69
2023/11/03 05:27:13;;;;;;;5.47;1.20;;;;;;;10.97;58.46;94734.06;5065910;28;20255;-71
2023/11/03 05:29:39;;;;;;;4.00;1.17;;;;;;;11.01;58.09;94731.81;5073026;28;20847;-73
2023/11/03 05:32:06;;;;;;;3.10;1.30;;;;;;;10.99;58.20;94739.09;5068072;28;21172;-69
2023/11/03 05:34:31;;;;;;;4.43;1.00;;;;;;;10.95;58.11;94735.31;5076999;28;21873;-73
2023/11/03 05:36:57;;;;;;;5.47;1.60;;;;;;;10.82;58.71;94739.66;5070017;28;20527;-70
2023/11/03 05:39:22;;;;;;;4.73;1.37;;;;;;;10.90;58.47;94741.19;5066944;28;20179;-72
2023/11/03 05:41:48;;;;;;;3.10;1.40;;;;;;;10.87;58.69;94747.66;5072550;28;20696;-70
2023/11/03 05:44:13;;;;;;;2.80;1.17;;;;;;;10.94;58.25;94742.34;5069505;28;20182;-70
2023/11/03 05:46:39;;;;;;;8.80;1.43;;;;;;;10.93;58.40;94745.22;5067389;28;20198;-70
2023/11/03 05:49:04;;;;;;;3.50;1.07;;;;;;;10.92;58.66;94752.25;5067779;28;20382;-75
2023/11/03 05:51:31;;;;;;;2.73;1.30;;;;;;;10.98;58.26;94753.22;5070982;28;20239;-71
2023/11/03 05:53:56;;;;;;;4.80;1.50;;;;;;;10.89;58.20;94756.09;5068237;28;20262;-70
2023/11/03 05:56:22;;;;;;;2.70;1.27;;;;;;;10.87;58.32;94762.59;5075929;28;20451;-70
2023/11/03 05:58:47;;;;;;;4.60;1.23;;;;;;;10.80;58.21;94767.06;5070613;28;20186;-71
2023/11/03 06:01:13;;;;;;;3.80;0.93;;;;;;;10.72;58.45;94768.13;5068349;28;20179;-70
2023/11/03 06:03:38;;;;;;;2.43;1.27;;;;;;;10.81;58.30;94766.03;5074308;28;20190;-70
2023/11/03 06:06:07;;;;;;;3.47;1.40;;;;;;;10.87;58.21;94773.84;5068048;28;20220;-70
2023/11/03 06:08:32;;;;;;;7.00;1.53;;;;;;;10.79;58.15;94771.50;5068000;28;20175;-70
2023/11/03 06:10:58;;;;;;;3.03;1.30;;;;;;;10.85;58.34;94775.09;5052283;28;20420;-70
2023/11/03 06:13:23;;;;;;;4.57;1.40;;;;;;;10.91;58.12;94779.47;5066819;28;20827;-71
2023/11/03 06:15:49;;;;;;;2.77;1.47;;;;;;;10.97;57.77;94780.44;5067680;28;20209;-70
2023/11/03 06:18:14;;;;;;;3.60;1.20;;;;;;;10.99;57.50;94783.66;5066940;28;20260;-72
2023/11/03 06:20:40;;;;;;;6.97;1.47;;;;;;;10.98;57.68;94782.03;5077319;28;20263;-70
2023/11/03 06:23:05;;;;;;;3.87;1.20;;;;;;;10.98;57.63;94792.53;5069432;28;20328;-71
2023/11/03 06:25:31;;;;;;;2.10;1.30;;;;;;;10.99;57.49;94791.50;5065377;28;20267;-70
2023/11/03 06:27:57;;;;;;;8.00;1.50;;;;;;;10.99;57.17;94778.41;5059971;28;20205;-68
2023/11/03 06:30:22;;;;;;;5.00;1.40;;;;;;;10.95;57.61;94787.72;5058326;28;20459;-71
2023/11/03 06:32:48;;;;;;;3.13;1.23;;;;;;;11.00;57.44;94793.09;5059614;28;20258;-71
2023/11/03 06:35:14;;;;;;;5.23;1.60;;;;;;;10.91;57.44;94806.50;5055290;28;20530;-70
2023/11/03 06:37:40;;;;;;;2.63;1.30;;;;;;;10.93;57.82;94815.94;5057043;28;20178;-69
2023/11/03 06:40:10;;;;;;;11.47;2.00;;;;;;;10.91;57.79;94816.97;5053081;28;20807;-70
2023/11/03 06:42:38;;;;;;;3.77;1.53;;;;;;;10.98;57.64;94826.59;5075905;28;20712;-68
2023/11/03 06:45:04;;;;;;;1.80;1.23;;;;;;;10.96;58.12;94823.41;5067454;28;20440;-73
2023/11/03 06:47:30;;;;;;;2.97;1.40;;;;;;;10.96;58.13;94815.53;5065810;28;21065;-70
2023/11/03 06:49:56;;;;;;;3.33;1.30;;;;;;;10.98;58.01;94826.59;5068151;28;20409;-69
2023/11/03 06:52:21;;;;;;;3.43;1.70;;;;;;;11.03;58.11;94832.00;5059783;28;20256;-70
2023/11/03 06:54:47;;;;;;;3.23;1.63;;;;;;;11.10;58.22;94827.50;5071727;28;20210;-72
2023/11/03 06:57:12;;;;;;;2.70;1.43;;;;;;;11.13;57.96;94827.09;5064879;28;20759;-72
2023/11/03 06:59:38;;;;;;;5.23;1.53;;;;;;;11.11;57.62;94834.34;5069171;28;20547;-71
2023/11/03 07:02:04;;;;;;;5.00;1.60;;;;;;;11.13;57.87;94848.06;5073025;28;20285;-73
2023/11/03 07:04:30;;;;;;;4.40;1.40;;;;;;;11.06;57.89;94845.47;5071350;28;20262;-69
2023/11/03 07:06:55;;;;;;;2.50;1.50;;;;;;;11.10;57.72;94851.09;5070447;28;21004;-69
2023/11/03 07:09:21;;;;;;;4.10;1.77;;;;;;;11.15;57.52;94858.34;5072710;28;20185;-69
2023/11/03 07:11:47;;;;;;;8.33;2.60;;;;;;;11.18;57.47;94858.72;5075766;28;20202;-69
2023/11/03 07:14:12;;;;;;;7.00;2.80;;;;;;;11.22;57.59;94865.13;5071312;28;20179;-69
2023/11/03 07:16:42;;;;;;;3.13;1.93;;;;;;;11.26;57.46;94859.44;5071288;28;20491;-72
2023/11/03 07:19:08;;;;;;;2.13;1.40;;;;;;;11.26;57.58;94867.31;5066226;28;20178;-70
2023/11/03 07:21:34;;;;;;;3.90;1.30;;;;;;;11.28;57.52;94868.69;5078124;28;20500;-70
2023/11/03 07:23:59;;;;;;;2.43;1.63;;;;;;;11.31;57.59;94872.72;5071518;28;20424;-70
2023/11/03 07:26:28;;;;;;;5.00;1.60;;;;;;;11.34;57.35;94864.44;5071404;28;20420;-69
2023/11/03 07:28:54;;;;;;;6.60;1.73;;;;;;;11.38;57.35;94868.22;5077208;28;20196;-70
2023/11/03 07:31:20;;;;;;;7.13;1.77;;;;;;;11.39;57.30;94872.47;5074174;28;20470;-70
2023/11/03 07:33:45;;;;;;;3.90;1.53;;;;;;;11.44;56.69;94863.94;5058284;28;20427;-69
2023/11/03 07:36:11;;;;;;;5.23;1.80;;;;;;;11.45;56.93;94868.16;5076599;28;20201;-69
2023/11/03 07:38:36;;;;;;;4.90;1.80;;;;;;;11.45;57.17;94871.63;5071349;28;20659;-71
2023/11/03 07:41:02;;;;;;;6.27;1.50;;;;;;;11.48;56.84;94873.78;5075258;28;20174;-71
2023/11/03 07:43:29;;;;;;;7.40;1.93;;;;;;;11.46;56.78;94865.34;5074914;28;20217;-70
2023/11/03 07:45:55;;;;;;;8.20;1.83;;;;;;;11.45;57.13;94879.47;5074018;28;20427;-72
2023/11/03 07:48:22;;;;;;;3.77;1.70;;;;;;;11.47;57.03;94877.41;5071114;28;20791;-71
2023/11/03 07:50:48;;;;;;;5.60;1.67;;;;;;;11.47;57.02;94874.81;5073608;28;20212;-73
2023/11/03 07:53:13;;;;;;;13.00;2.23;;;;;;;11.49;56.94;94877.22;5070861;28;20855;-70
2023/11/03 07:55:39;;;;;;;5.60;2.20;;;;;;;11.49;57.19;94877.22;5075928;28;20709;-71
2023/11/03 07:58:05;;;;;;;7.20;1.80;;;;;;;11.49;57.34;94872.78;5070227;28;20676;-74
2023/11/03 08:00:31;;;;;;;3.33;1.73;;;;;;;11.49;57.65;94874.59;5065317;28;20218;-74
2023/11/03 08:02:59;;;;;;;5.70;1.53;;;;;;;11.46;57.91;94877.66;5071005;28;20447;-72
2023/11/03 08:05:24;;;;;;;2.23;1.30;;;;;;;11.45;57.48;94871.63;5070123;28;20854;-74
2023/11/03 08:07:50;;;;;;;3.67;1.33;;;;;;;11.49;57.40;94875.41;5070705;28;20432;-71
2023/11/03 08:10:16;;;;;;;4.90;1.80;;;;;;;11.46;56.99;94870.59;5078107;28;20241;-71
2023/11/03 08:12:41;;;;;;;4.93;1.50;;;;;;;11.53;56.93;94868.72;5070639;28;20254;-72
2023/11/03 08:15:08;;;;;;;5.10;1.50;;;;;;;11.60;56.88;94870.44;5070490;28;20186;-72
2023/11/03 08:17:35;;;;;;;3.40;1.60;;;;;;;11.62;56.85;94874.50;5069991;28;20203;-71
2023/11/03 08:20:01;;;;;;;3.40;1.30;;;;;;;11.57;57.07;94878.78;5075799;28;20870;-71
2023/11/03 08:22:29;;;;;;;5.00;1.60;;;;;;;11.63;57.31;94880.53;5051804;28;20437;-73
2023/11/03 08:24:55;;;;;;;8.77;1.57;;;;;;;11.66;57.10;94880.88;5080981;28;20419;-71
2023/11/03 08:27:21;;;;;;;2.83;1.60;;;;;;;11.73;56.83;94882.66;5072850;28;20405;-70
2023/11/03 08:29:47;;;;;;;3.30;1.10;;;;;;;11.71;56.46;94882.88;5070474;28;20969;-72
2023/11/03 08:32:13;;;;;;;4.70;1.63;;;;;;;11.81;56.42;94882.38;5070309;28;20198;-71
2023/11/03 08:34:40;;;;;;;2.20;1.40;;;;;;;11.88;56.55;94888.38;5067903;28;20416;-69
2023/11/03 08:37:05;;;;;;;6.17;1.50;;;;;;;11.91;55.80;94887.13;5070158;28;20202;-71
2023/11/03 08:39:31;;;;;;;5.07;1.30;;;;;;;11.82;55.80;94895.28;5071180;28;20475;-70
2023/11/03 08:42:01;;;;;;;3.20;1.53;;;;;;;11.91;55.68;94905.50;5075502;28;20695;-70
2023/11/03 08:44:27;;;;;;;2.90;1.50;;;;;;;11.92;55.70;94910.53;5053916;28;20449;-71
2023/11/03 08:46:52;;;;;;;5.33;1.27;;;;;;;11.92;55.67;94913.16;5070096;28;20452;-69
2023/11/03 08:49:17;;;;;;;1.93;0.97;;;;;;;11.92;55.31;94910.53;5077814;28;20596;-71
2023/11/03 08:51:43;;;;;;;1.97;1.27;;;;;;;11.97;55.23;94917.78;5051963;28;20206;-75
2023/11/03 08:54:10;;;;;;;1.83;1.20;;;;;;;11.98;55.38;94935.13;5069472;28;20176;-72
2023/11/03 08:56:36;;;;;;;4.47;1.53;;;;;;;11.92;55.35;94928.91;5076337;28;20234;-70
2023/11/03 08:59:03;;;;;;;9.73;1.40;;;;;;;11.92;55.25;94935.97;5070686;28;20408;-70
2023/11/03 09:01:29;;;;;;;1.80;1.30;;;;;;;11.91;55.27;94929.91;5070448;28;20178;-69
2023/11/03 09:03:54;;;;;;;1.93;1.30;;;;;;;11.97;55.48;94929.06;5051726;28;20425;-73
2023/11/03 09:06:20;;;;;;;3.57;1.60;;;;;;;12.04;55.29;94939.53;5070022;28;20256;-72
2023/11/03 09:08:46;;;;;;;3.43;1.20;;;;;;;12.04;55.24;94934.28;5068586;28;20318;-73
2023/11/03 09:11:12;;;;;;;5.40;2.10;;;;;;;12.12;55.32;94946.31;5073557;28;20194;-71
2023/11/03 09:13:51;;;;;;;6.47;1.40;;;;;;;12.16;55.41;94946.69;5068788;28;20453;-70
2023/11/03 09:16:17;;;;;;;2.83;1.40;;;;;;;12.18;54.78;94952.53;5066455;28;20471;-70
2023/11/03 09:18:43;;;;;;;4.00;1.50;;;;;;;12.23;55.12;94947.41;5077157;28;20423;-70
2023/11/03 09:21:09;;;;;;;8.00;1.70;;;;;;;12.24;55.09;94943.78;5050550;28;20232;-70
2023/11/03 09:23:35;;;;;;;3.27;1.50;;;;;;;12.27;55.46;94940.72;5068773;28;20437;-70
2023/11/03 09:26:03;;;;;;;3.57;1.43;;;;;;;12.27;54.94;94935.47;5069482;28;20508;-70
2023/11/03 09:28:29;;;;;;;3.50;2.70;;;;;;;12.34;54.93;94938.84;5038250;28;20182;-71
2023/11/03 09:30:55;;;;;;;6.80;3.30;;;;;;;12.40;55.24;94940.56;5051244;28;20444;-71
2023/11/03 09:33:20;;;;;;;5.53;2.93;;;;;;;12.44;54.87;94941.75;5055975;28;20951;-70
2023/11/03 09:35:46;;;;;;;10.57;6.50;;;;;;;12.49;54.99;94935.84;5070623;28;20572;-70
2023/11/03 09:38:12;;;;;;;4.53;1.33;;;;;;;12.53;54.53;94936.19;5074820;28;20177;-70
2023/11/03 09:40:39;;;;;;;5.30;2.80;;;;;;;12.58;54.72;94931.09;5050756;28;20587;-70
2023/11/03 09:43:05;;;;;;;3.50;1.80;;;;;;;12.62;54.38;94931.44;5062414;28;20504;-70
2023/11/03 09:45:33;;;;;;;4.63;2.20;;;;;;;12.63;54.44;94923.34;5056934;28;20423;-69
2023/11/03 09:47:59;;;;;;;6.17;1.80;;;;;;;12.65;54.28;94923.91;5052725;28;20427;-70
2023/11/03 09:50:25;;;;;;;7.83;1.50;;;;;;;12.62;54.28;94928.81;5073334;28;20432;-71
2023/11/03 09:52:53;;;;;;;4.10;1.47;;;;;;;12.61;53.69;94928.00;5068381;28;20446;-70
2023/11/03 09:55:21;;;;;;;4.83;2.10;;;;;;;12.68;53.95;94928.75;5070819;28;20773;-69
2023/11/03 09:57:49;;;;;;;11.40;1.80;;;;;;;12.74;53.94;94930.47;5054919;28;20466;-71
2023/11/03 10:00:16;;;;;;;3.63;1.47;;;;;;;12.72;53.65;94927.28;5068219;28;20420;-71
2023/11/03 10:02:47;;;;;;;6.60;1.43;;;;;;;12.68;53.72;94926.13;5069509;28;20463;-69
2023/11/03 10:05:16;;;;;;;6.03;0.90;;;;;;;12.70;53.20;94923.25;5062935;28;20479;-69
2023/11/03 10:08:05;;;;;;;2.90;1.00;;;;;;;12.72;53.48;94923.84;5072703;28;20425;-70
2023/11/03 10:10:33;;;;;;;3.90;1.57;;;;;;;12.86;53.04;94920.03;5066942;28;20453;-71
2023/11/03 10:12:59;;;;;;;3.47;1.40;;;;;;;12.97;53.34;94915.84;5071756;28;20936;-70
2023/11/03 10:15:27;;;;;;;5.30;1.47;;;;;;;13.05;53.14;94919.97;5068319;28;20474;-72
2023/11/03 10:17:53;;;;;;;1.70;1.10;;;;;;;13.11;53.01;94916.44;5067803;28;20197;-70
2023/11/03 10:20:20;;;;;;;1.67;0.90;;;;;;;13.20;52.37;94915.09;5072341;28;20425;-69
2023/11/03 10:22:47;;;;;;;4.87;1.37;;;;;;;13.28;51.99;94913.19;5067644;28;20513;-71
2023/11/03 10:25:14;;;;;;;3.43;1.10;;;;;;;13.37;52.33;94911.84;5072889;28;20432;-72
2023/11/03 10:27:39;;;;;;;4.30;1.20;;;;;;;13.41;52.10;94902.50;5068003;28;20905;-72
2023/11/03 10:30:05;;;;;;;5.57;1.23;;;;;;;13.50;51.86;94895.06;5076263;28;20443;-71
2023/11/03 10:32:32;;;;;;;2.50;1.20;;;;;;;13.50;51.13;94900.31;5074171;28;20205;-72
2023/11/03 10:35:00;;;;;;;1.93;1.03;;;;;;;13.53;50.77;94891.97;5064081;28;20841;-70
2023/11/03 10:37:27;;;;;;;6.47;1.30;;;;;;;13.56;50.73;94902.06;5067425;28;20477;-71
2023/11/03 10:39:52;;;;;;;6.50;0.97;;;;;;;13.50;50.47;94895.06;5070949;28;20439;-72
2023/11/03 10:42:19;;;;;;;2.80;1.00;;;;;;;13.50;50.18;94897.69;5072399;28;20815;-70
2023/11/03 10:44:45;;;;;;;3.90;0.90;;;;;;;13.55;50.24;94894.38;5052769;28;20659;-71
2023/11/03 10:47:16;;;;;;;3.77;1.00;;;;;;;13.52;50.10;94899.09;5051092;28;20416;-70
2023/11/03 10:49:43;;;;;;;2.93;1.00;;;;;;;13.54;50.08;94898.06;5065893;28;20201;-70
2023/11/03 10:52:35;;;;;;;2.30;1.03;;;;;;;13.40;49.68;94900.91;5067839;28;20477;-69
2023/11/03 10:55:14;;;;;;;3.03;1.00;;;;;;;13.47;49.71;94898.94;5052358;28;20421;-72
2023/11/03 10:57:41;;;;;;;2.17;1.00;;;;;;;13.56;49.85;94901.22;5066166;28;20543;-69
2023/11/03 11:00:26;;;;;;;1.90;0.90;;;;;;;13.59;50.08;94901.59;5068029;28;20516;-72
2023/11/03 11:03:06;;;;;;;3.40;1.00;;;;;;;13.58;50.32;94900.00;5044152;28;20924;-71
2023/11/03 11:05:39;;;;;;;4.43;0.80;;;;;;;13.58;49.96;94896.56;5045901;28;20440;-71
2023/11/03 11:08:06;;;;;;;1.20;0.93;;;;;;;13.59;49.69;94912.13;5065650;28;20433;-69
2023/11/03 11:10:45;;;;;;;1.90;0.70;;;;;;;13.52;49.55;94906.16;5049986;28;20427;-70
2023/11/03 11:13:22;;;;;;;1.87;0.80;;;;;;;13.43;49.86;94910.16;5062618;28;20436;-69
2023/11/03 11:15:56;;;;;;;1.20;0.70;;;;;;;13.29;49.37;94899.81;5073099;28;20943;-71
2023/11/03 11:18:23;;;;;;;1.57;0.60;;;;;;;13.29;48.96;94899.81;5063543;28;20419;-73
2023/11/03 11:20:52;;;;;;;4.23;0.97;;;;;;;13.30;48.95;94908.47;5066941;28;20420;-70
2023/11/03 11:23:18;;;;;;;1.27;0.60;;;;;;;13.27;49.14;94903.69;5066243;28;20448;-71
2023/11/03 11:25:43;;;;;;;1.00;0.80;;;;;;;13.31;49.16;94904.81;5037920;28;20463;-70
2023/11/03 11:28:35;;;;;;;1.37;0.70;;;;;;;13.28;49.68;94900.81;5065860;28;20425;-69
2023/11/03 11:31:27;;;;;;;1.87;0.77;;;;;;;13.32;49.31;94902.00;5070506;28;20555;-71